Woodsville, NH

7:13 AM EST on March 05, 2015 (GMT -0500)
Mountain Lakes | Change Station
CLOSE
Current Station
Personal Weather Station
Location: Haverhill, NH
Elevation: 843 ft
Nearby Weather Stations

Elev 843 ft 44.12 °N, 71.96 °W | Updated 1 minute ago

Clear
Clear
21.4 °F
Feels Like 21 °F
N
0.0
Wind Variable Wind from ENE
Gusts 3.0 mph

Today
High -- | Low -- °F
--% Chance of Precip.
Yesterday
High -- | Low -- °F
Precip. -- in
6:18 AM 5:41 PM
Full, 100% visible
Pressure 29.96 in
Visibility 10.0 miles
Clouds Clear
Windchill 21 °F
Dew Point 10 °F
Humidity 59%
Rainfall in
Snow Depth Not available.
UV 0 out of 12
Pollen .40 out of 12
Air Quality Not available.
Flu Activity Not available.
METAR KHIE 051052Z AUTO 30014G19KT 10SM CLR M07/M17 A2991 RMK AO2 SLP144 T10671167

More Conditions Fewer Conditions

Pressure 29.96 in
Visibility 10.0 miles
Clouds Clear
Windchill 21 °F
Dew Point 10 °F
Humidity 59%
Rainfall in
Snow Depth Not available.
UV 0 out of 12
Pollen .40 out of 12
Air Quality Not available.
Flu Activity Not available.
METAR KHIE 051052Z AUTO 30014G19KT 10SM CLR M07/M17 A2991 RMK AO2 SLP144 T10671167

More Conditions Fewer Conditions

10-Day Weather Forecast

Almanac

Astronomy

Mar. 05, 2015 Rise Set
Actual Time
Civil Twilight
Nautical Twilight
Astronomical Twilight
Moon
Length of Visible Light
Length of Day
Tomorrow will be .
, % of the Moon is Illuminated

Today's Extremes

State Highs State Lows

Community

WunderPhotos

Upload Photos

1,802,715 photos uploaded!

WunderBlogs® & News

Nearby

Air Quality

  Air Quality AQ Index Pollutant
Not available.

Snow Depth

Station Depth Elevation

Earthquake Activity

City Distance Mag. Time & Date
Minimum magnitude displayed is 2.5.

Coastal Water Temperatures

Place Temperature

Nearby Weather Stations